sensor_id;sensor_type;location;lat;lon;timestamp;temperature;humidity
59999;DHT22;45859;51.378;6.736;2023-01-23T00:00:40;2.90;99.90
59999;DHT22;45859;51.378;6.736;2023-01-23T00:03:09;2.80;99.90
59999;DHT22;45859;51.378;6.736;2023-01-23T00:05:35;2.80;99.90
59999;DHT22;45859;51.378;6.736;2023-01-23T00:08:01;2.80;99.90
59999;DHT22;45859;51.378;6.736;2023-01-23T00:10:26;2.80;99.90
59999;DHT22;45859;51.378;6.736;2023-01-23T00:12:52;2.80;99.90
59999;DHT22;45859;51.378;6.736;2023-01-23T00:15:19;2.70;99.90
59999;DHT22;45859;51.378;6.736;2023-01-23T00:17:44;2.80;99.90
59999;DHT22;45859;51.378;6.736;2023-01-23T00:20:13;2.80;99.90
59999;DHT22;45859;51.378;6.736;2023-01-23T00:22:39;2.80;99.90
59999;DHT22;45859;51.378;6.736;2023-01-23T00:25:05;2.80;99.90
59999;DHT22;45859;51.378;6.736;2023-01-23T00:27:31;2.80;99.90
59999;DHT22;45859;51.378;6.736;2023-01-23T00:29:58;2.80;99.90
59999;DHT22;45859;51.378;6.736;2023-01-23T00:32:23;2.90;99.90
59999;DHT22;45859;51.378;6.736;2023-01-23T00:34:49;2.80;99.90
59999;DHT22;45859;51.378;6.736;2023-01-23T00:37:15;2.90;99.90
59999;DHT22;45859;51.378;6.736;2023-01-23T00:39:42;2.80;99.90
59999;DHT22;45859;51.378;6.736;2023-01-23T00:42:08;2.80;99.90
59999;DHT22;45859;51.378;6.736;2023-01-23T00:44:33;2.80;99.90
59999;DHT22;45859;51.378;6.736;2023-01-23T00:46:59;2.70;99.90
59999;DHT22;45859;51.378;6.736;2023-01-23T00:49:25;2.70;99.90
59999;DHT22;45859;51.378;6.736;2023-01-23T00:51:51;2.80;99.90
59999;DHT22;45859;51.378;6.736;2023-01-23T00:54:19;2.70;99.90
59999;DHT22;45859;51.378;6.736;2023-01-23T00:56:46;2.80;99.90
59999;DHT22;45859;51.378;6.736;2023-01-23T00:59:12;2.80;99.90
59999;DHT22;45859;51.378;6.736;2023-01-23T01:01:38;2.80;99.90
59999;DHT22;45859;51.378;6.736;2023-01-23T01:04:04;2.80;99.90
59999;DHT22;45859;51.378;6.736;2023-01-23T01:06:30;2.80;99.90
59999;DHT22;45859;51.378;6.736;2023-01-23T01:08:56;2.70;99.90
59999;DHT22;45859;51.378;6.736;2023-01-23T01:11:23;2.70;99.90
59999;DHT22;45859;51.378;6.736;2023-01-23T01:13:48;2.80;99.90
59999;DHT22;45859;51.378;6.736;2023-01-23T01:16:14;2.70;99.90
59999;DHT22;45859;51.378;6.736;2023-01-23T01:18:40;2.70;99.90
59999;DHT22;45859;51.378;6.736;2023-01-23T01:21:08;2.80;99.90
59999;DHT22;45859;51.378;6.736;2023-01-23T01:23:34;2.80;99.90
59999;DHT22;45859;51.378;6.736;2023-01-23T01:26:00;2.70;99.90
59999;DHT22;45859;51.378;6.736;2023-01-23T01:28:27;2.70;99.90
59999;DHT22;45859;51.378;6.736;2023-01-23T01:30:55;2.70;99.90
59999;DHT22;45859;51.378;6.736;2023-01-23T01:33:21;2.80;99.90
59999;DHT22;45859;51.378;6.736;2023-01-23T01:35:49;2.80;99.90
59999;DHT22;45859;51.378;6.736;2023-01-23T01:38:14;2.80;99.90
59999;DHT22;45859;51.378;6.736;2023-01-23T01:40:40;2.80;99.90
59999;DHT22;45859;51.378;6.736;2023-01-23T01:43:08;2.90;99.90
59999;DHT22;45859;51.378;6.736;2023-01-23T01:46:18;2.90;99.90
59999;DHT22;45859;51.378;6.736;2023-01-23T01:51:33;2.90;99.90
59999;DHT22;45859;51.378;6.736;2023-01-23T02:02:31;2.90;99.90
59999;DHT22;45859;51.378;6.736;2023-01-23T02:05:04;2.90;99.90
59999;DHT22;45859;51.378;6.736;2023-01-23T02:07:41;2.90;99.90
59999;DHT22;45859;51.378;6.736;2023-01-23T02:10:10;2.90;99.90
59999;DHT22;45859;51.378;6.736;2023-01-23T02:12:36;2.90;99.90
59999;DHT22;45859;51.378;6.736;2023-01-23T02:15:04;2.80;99.90
59999;DHT22;45859;51.378;6.736;2023-01-23T02:17:31;2.80;99.90
59999;DHT22;45859;51.378;6.736;2023-01-23T02:28:10;2.80;99.90
59999;DHT22;45859;51.378;6.736;2023-01-23T02:30:37;2.80;99.90
59999;DHT22;45859;51.378;6.736;2023-01-23T02:35:49;2.70;99.90
59999;DHT22;45859;51.378;6.736;2023-01-23T02:38:18;2.70;99.90
59999;DHT22;45859;51.378;6.736;2023-01-23T02:40:45;2.70;99.90
59999;DHT22;45859;51.378;6.736;2023-01-23T02:43:15;2.70;99.90
59999;DHT22;45859;51.378;6.736;2023-01-23T02:45:44;2.70;99.90
59999;DHT22;45859;51.378;6.736;2023-01-23T02:48:10;2.70;99.90
59999;DHT22;45859;51.378;6.736;2023-01-23T02:50:36;2.70;99.90
59999;DHT22;45859;51.378;6.736;2023-01-23T02:53:02;2.70;99.90
59999;DHT22;45859;51.378;6.736;2023-01-23T02:55:27;2.60;99.90
59999;DHT22;45859;51.378;6.736;2023-01-23T02:57:58;2.60;99.90
59999;DHT22;45859;51.378;6.736;2023-01-23T03:00:42;2.50;99.90
59999;DHT22;45859;51.378;6.736;2023-01-23T03:03:08;2.50;99.90
59999;DHT22;45859;51.378;6.736;2023-01-23T03:05:34;2.40;99.90
59999;DHT22;45859;51.378;6.736;2023-01-23T03:08:00;2.30;99.90
59999;DHT22;45859;51.378;6.736;2023-01-23T03:10:25;2.30;99.90
59999;DHT22;45859;51.378;6.736;2023-01-23T03:12:51;2.20;99.90
59999;DHT22;45859;51.378;6.736;2023-01-23T03:15:17;2.10;99.90
59999;DHT22;45859;51.378;6.736;2023-01-23T03:17:42;2.10;99.90
59999;DHT22;45859;51.378;6.736;2023-01-23T03:20:09;2.00;99.90
59999;DHT22;45859;51.378;6.736;2023-01-23T03:22:35;1.60;99.90
59999;DHT22;45859;51.378;6.736;2023-01-23T03:25:00;2.00;99.90
59999;DHT22;45859;51.378;6.736;2023-01-23T03:27:26;2.00;99.90
59999;DHT22;45859;51.378;6.736;2023-01-23T03:29:52;2.10;99.90
59999;DHT22;45859;51.378;6.736;2023-01-23T03:32:36;2.10;99.90
59999;DHT22;45859;51.378;6.736;2023-01-23T03:35:04;2.20;99.90
59999;DHT22;45859;51.378;6.736;2023-01-23T03:37:29;2.30;99.90
59999;DHT22;45859;51.378;6.736;2023-01-23T03:39:55;2.30;99.90
59999;DHT22;45859;51.378;6.736;2023-01-23T03:42:39;2.30;99.90
59999;DHT22;45859;51.378;6.736;2023-01-23T03:45:05;2.40;99.90
59999;DHT22;45859;51.378;6.736;2023-01-23T03:47:32;2.40;99.90
59999;DHT22;45859;51.378;6.736;2023-01-23T03:49:57;2.40;99.90
59999;DHT22;45859;51.378;6.736;2023-01-23T03:52:23;2.40;99.90
59999;DHT22;45859;51.378;6.736;2023-01-23T03:54:49;2.40;99.90
59999;DHT22;45859;51.378;6.736;2023-01-23T03:57:15;2.40;99.90
59999;DHT22;45859;51.378;6.736;2023-01-23T03:59:40;2.40;99.90
59999;DHT22;45859;51.378;6.736;2023-01-23T04:02:06;2.40;99.90
59999;DHT22;45859;51.378;6.736;2023-01-23T04:04:33;2.40;99.90
59999;DHT22;45859;51.378;6.736;2023-01-23T04:06:59;2.40;99.90
59999;DHT22;45859;51.378;6.736;2023-01-23T04:09:25;2.40;99.90
59999;DHT22;45859;51.378;6.736;2023-01-23T04:11:57;2.50;99.90
59999;DHT22;45859;51.378;6.736;2023-01-23T04:14:23;2.50;99.90
59999;DHT22;45859;51.378;6.736;2023-01-23T04:16:49;2.50;99.90
59999;DHT22;45859;51.378;6.736;2023-01-23T04:19:15;2.50;99.90
59999;DHT22;45859;51.378;6.736;2023-01-23T04:21:45;2.50;99.90
59999;DHT22;45859;51.378;6.736;2023-01-23T04:24:11;2.50;99.90
59999;DHT22;45859;51.378;6.736;2023-01-23T04:26:37;2.60;99.90
59999;DHT22;45859;51.378;6.736;2023-01-23T04:29:03;2.60;99.90
59999;DHT22;45859;51.378;6.736;2023-01-23T04:31:29;2.60;99.90
59999;DHT22;45859;51.378;6.736;2023-01-23T04:33:55;2.60;99.90
59999;DHT22;45859;51.378;6.736;2023-01-23T04:36:21;2.60;99.90
59999;DHT22;45859;51.378;6.736;2023-01-23T04:38:47;2.60;99.90
59999;DHT22;45859;51.378;6.736;2023-01-23T04:41:22;2.60;99.90
59999;DHT22;45859;51.378;6.736;2023-01-23T04:43:48;2.60;99.90
59999;DHT22;45859;51.378;6.736;2023-01-23T04:46:13;2.60;99.90
59999;DHT22;45859;51.378;6.736;2023-01-23T04:48:39;2.50;99.90
59999;DHT22;45859;51.378;6.736;2023-01-23T04:51:05;2.50;99.90
59999;DHT22;45859;51.378;6.736;2023-01-23T04:53:31;2.50;99.90
59999;DHT22;45859;51.378;6.736;2023-01-23T04:55:56;2.50;99.90
59999;DHT22;45859;51.378;6.736;2023-01-23T04:58:22;2.50;99.90
59999;DHT22;45859;51.378;6.736;2023-01-23T05:00:48;2.50;99.90
59999;DHT22;45859;51.378;6.736;2023-01-23T05:03:14;2.50;99.90
59999;DHT22;45859;51.378;6.736;2023-01-23T05:05:41;2.60;99.90
59999;DHT22;45859;51.378;6.736;2023-01-23T05:08:09;2.50;99.90
59999;DHT22;45859;51.378;6.736;2023-01-23T05:10:36;4.50;99.90
59999;DHT22;45859;51.378;6.736;2023-01-23T05:13:02;2.60;99.90
59999;DHT22;45859;51.378;6.736;2023-01-23T05:15:28;2.60;99.90
59999;DHT22;45859;51.378;6.736;2023-01-23T05:17:53;2.60;99.90
59999;DHT22;45859;51.378;6.736;2023-01-23T05:20:20;2.60;99.90
59999;DHT22;45859;51.378;6.736;2023-01-23T05:22:48;2.60;99.90
59999;DHT22;45859;51.378;6.736;2023-01-23T05:25:25;2.60;99.90
59999;DHT22;45859;51.378;6.736;2023-01-23T05:27:52;2.60;99.90
59999;DHT22;45859;51.378;6.736;2023-01-23T05:30:20;2.60;99.90
59999;DHT22;45859;51.378;6.736;2023-01-23T05:32:46;2.60;99.90
59999;DHT22;45859;51.378;6.736;2023-01-23T05:35:12;2.60;99.90
59999;DHT22;45859;51.378;6.736;2023-01-23T05:37:38;2.60;99.90
59999;DHT22;45859;51.378;6.736;2023-01-23T05:40:05;2.60;99.90
59999;DHT22;45859;51.378;6.736;2023-01-23T05:42:33;2.60;99.90
59999;DHT22;45859;51.378;6.736;2023-01-23T05:44:59;2.60;99.90
59999;DHT22;45859;51.378;6.736;2023-01-23T05:47:25;2.60;99.90
59999;DHT22;45859;51.378;6.736;2023-01-23T05:49:51;2.60;99.90
59999;DHT22;45859;51.378;6.736;2023-01-23T05:52:17;2.60;99.90
59999;DHT22;45859;51.378;6.736;2023-01-23T05:54:43;2.60;99.90
59999;DHT22;45859;51.378;6.736;2023-01-23T05:57:09;2.70;99.90
59999;DHT22;45859;51.378;6.736;2023-01-23T05:59:35;2.70;99.90
59999;DHT22;45859;51.378;6.736;2023-01-23T06:02:00;2.70;99.90
59999;DHT22;45859;51.378;6.736;2023-01-23T06:04:26;2.70;99.90
59999;DHT22;45859;51.378;6.736;2023-01-23T06:06:52;2.70;99.90
59999;DHT22;45859;51.378;6.736;2023-01-23T06:09:18;2.70;99.90
59999;DHT22;45859;51.378;6.736;2023-01-23T06:11:43;2.70;99.90
59999;DHT22;45859;51.378;6.736;2023-01-23T06:14:09;2.60;99.90
59999;DHT22;45859;51.378;6.736;2023-01-23T06:16:34;2.60;99.90
59999;DHT22;45859;51.378;6.736;2023-01-23T06:19:00;2.60;99.90
59999;DHT22;45859;51.378;6.736;2023-01-23T06:21:26;2.70;99.90
59999;DHT22;45859;51.378;6.736;2023-01-23T06:23:51;2.70;99.90
59999;DHT22;45859;51.378;6.736;2023-01-23T06:26:17;2.70;99.90
59999;DHT22;45859;51.378;6.736;2023-01-23T06:28:43;2.70;99.90
59999;DHT22;45859;51.378;6.736;2023-01-23T06:31:08;2.70;99.90
59999;DHT22;45859;51.378;6.736;2023-01-23T06:33:35;2.70;99.90
59999;DHT22;45859;51.378;6.736;2023-01-23T06:36:03;2.60;99.90
59999;DHT22;45859;51.378;6.736;2023-01-23T06:38:30;2.60;99.90
59999;DHT22;45859;51.378;6.736;2023-01-23T06:40:56;2.60;99.90
59999;DHT22;45859;51.378;6.736;2023-01-23T06:43:22;2.60;99.90
59999;DHT22;45859;51.378;6.736;2023-01-23T06:45:49;2.60;99.90
59999;DHT22;45859;51.378;6.736;2023-01-23T06:48:15;2.60;99.90
59999;DHT22;45859;51.378;6.736;2023-01-23T06:50:41;2.50;99.90
59999;DHT22;45859;51.378;6.736;2023-01-23T06:53:08;2.60;99.90
59999;DHT22;45859;51.378;6.736;2023-01-23T06:55:36;2.60;99.90
59999;DHT22;45859;51.378;6.736;2023-01-23T06:58:02;2.60;99.90
59999;DHT22;45859;51.378;6.736;2023-01-23T07:00:27;2.60;99.90
59999;DHT22;45859;51.378;6.736;2023-01-23T07:02:53;2.60;99.90
59999;DHT22;45859;51.378;6.736;2023-01-23T07:05:23;2.70;99.90
59999;DHT22;45859;51.378;6.736;2023-01-23T07:07:50;2.70;99.90
59999;DHT22;45859;51.378;6.736;2023-01-23T07:10:16;2.70;99.90
59999;DHT22;45859;51.378;6.736;2023-01-23T07:12:42;2.70;99.90
59999;DHT22;45859;51.378;6.736;2023-01-23T07:15:07;2.70;99.90
59999;DHT22;45859;51.378;6.736;2023-01-23T07:17:33;2.70;99.90
59999;DHT22;45859;51.378;6.736;2023-01-23T07:19:59;2.70;99.90
59999;DHT22;45859;51.378;6.736;2023-01-23T07:22:25;2.70;99.90
59999;DHT22;45859;51.378;6.736;2023-01-23T07:24:50;2.80;99.90
59999;DHT22;45859;51.378;6.736;2023-01-23T07:27:16;2.80;99.90
59999;DHT22;45859;51.378;6.736;2023-01-23T07:29:42;2.80;99.90
59999;DHT22;45859;51.378;6.736;2023-01-23T07:32:08;2.80;99.90
59999;DHT22;45859;51.378;6.736;2023-01-23T07:34:33;2.80;99.90
59999;DHT22;45859;51.378;6.736;2023-01-23T07:37:00;2.80;99.90
59999;DHT22;45859;51.378;6.736;2023-01-23T07:39:26;2.80;99.90
59999;DHT22;45859;51.378;6.736;2023-01-23T07:41:55;2.80;99.90
59999;DHT22;45859;51.378;6.736;2023-01-23T07:44:21;2.90;99.90
59999;DHT22;45859;51.378;6.736;2023-01-23T07:46:47;2.90;99.90
59999;DHT22;45859;51.378;6.736;2023-01-23T07:49:13;2.90;99.90
59999;DHT22;45859;51.378;6.736;2023-01-23T07:51:39;2.80;99.90
59999;DHT22;45859;51.378;6.736;2023-01-23T07:54:06;2.90;99.90
59999;DHT22;45859;51.378;6.736;2023-01-23T07:56:31;2.90;99.90
59999;DHT22;45859;51.378;6.736;2023-01-23T07:58:58;2.90;99.90
59999;DHT22;45859;51.378;6.736;2023-01-23T08:01:24;2.90;99.90
59999;DHT22;45859;51.378;6.736;2023-01-23T08:03:50;3.00;99.90
59999;DHT22;45859;51.378;6.736;2023-01-23T08:06:16;3.00;99.90
59999;DHT22;45859;51.378;6.736;2023-01-23T08:08:42;2.90;99.90
59999;DHT22;45859;51.378;6.736;2023-01-23T08:11:08;3.00;99.90
59999;DHT22;45859;51.378;6.736;2023-01-23T08:13:37;3.00;99.90
59999;DHT22;45859;51.378;6.736;2023-01-23T08:16:03;3.00;99.90
59999;DHT22;45859;51.378;6.736;2023-01-23T08:18:30;3.10;99.90
59999;DHT22;45859;51.378;6.736;2023-01-23T08:21:00;3.10;99.90
59999;DHT22;45859;51.378;6.736;2023-01-23T08:23:29;3.10;99.90
59999;DHT22;45859;51.378;6.736;2023-01-23T08:25:56;3.10;99.90
59999;DHT22;45859;51.378;6.736;2023-01-23T08:28:22;3.10;99.90
59999;DHT22;45859;51.378;6.736;2023-01-23T08:30:49;3.10;99.90
59999;DHT22;45859;51.378;6.736;2023-01-23T08:33:15;3.10;99.90
59999;DHT22;45859;51.378;6.736;2023-01-23T08:35:55;3.10;99.90
59999;DHT22;45859;51.378;6.736;2023-01-23T08:38:22;3.10;99.90
59999;DHT22;45859;51.378;6.736;2023-01-23T08:40:49;3.10;99.90
59999;DHT22;45859;51.378;6.736;2023-01-23T08:43:16;3.20;99.90
59999;DHT22;45859;51.378;6.736;2023-01-23T08:45:47;3.20;99.90
59999;DHT22;45859;51.378;6.736;2023-01-23T08:48:13;3.20;99.90
59999;DHT22;45859;51.378;6.736;2023-01-23T08:50:39;3.20;99.90
59999;DHT22;45859;51.378;6.736;2023-01-23T08:53:05;3.20;99.90
59999;DHT22;45859;51.378;6.736;2023-01-23T08:55:31;3.20;99.90
59999;DHT22;45859;51.378;6.736;2023-01-23T08:57:58;3.20;99.90
59999;DHT22;45859;51.378;6.736;2023-01-23T09:00:24;3.20;99.90
59999;DHT22;45859;51.378;6.736;2023-01-23T09:02:50;3.70;99.90
59999;DHT22;45859;51.378;6.736;2023-01-23T09:05:16;3.30;99.90
59999;DHT22;45859;51.378;6.736;2023-01-23T09:07:42;3.30;99.90
59999;DHT22;45859;51.378;6.736;2023-01-23T09:10:08;3.30;99.90
59999;DHT22;45859;51.378;6.736;2023-01-23T09:12:34;3.30;99.90
59999;DHT22;45859;51.378;6.736;2023-01-23T09:15:00;3.40;99.90
59999;DHT22;45859;51.378;6.736;2023-01-23T09:17:26;3.40;99.90
59999;DHT22;45859;51.378;6.736;2023-01-23T09:19:52;3.40;99.90
59999;DHT22;45859;51.378;6.736;2023-01-23T09:22:18;3.40;99.90
59999;DHT22;45859;51.378;6.736;2023-01-23T09:24:44;3.40;99.90
59999;DHT22;45859;51.378;6.736;2023-01-23T09:27:10;3.40;99.90
59999;DHT22;45859;51.378;6.736;2023-01-23T09:29:36;3.40;99.90
59999;DHT22;45859;51.378;6.736;2023-01-23T09:32:02;3.30;99.90
59999;DHT22;45859;51.378;6.736;2023-01-23T09:34:28;3.30;99.90
59999;DHT22;45859;51.378;6.736;2023-01-23T09:36:54;3.30;99.90
59999;DHT22;45859;51.378;6.736;2023-01-23T09:39:20;3.30;99.90
59999;DHT22;45859;51.378;6.736;2023-01-23T09:41:47;3.40;99.90
59999;DHT22;45859;51.378;6.736;2023-01-23T09:46:45;3.50;99.90
59999;DHT22;45859;51.378;6.736;2023-01-23T09:49:21;3.50;99.90
59999;DHT22;45859;51.378;6.736;2023-01-23T09:52:05;3.50;99.90
59999;DHT22;45859;51.378;6.736;2023-01-23T09:54:40;3.50;99.90
59999;DHT22;45859;51.378;6.736;2023-01-23T09:57:37;3.50;99.90
59999;DHT22;45859;51.378;6.736;2023-01-23T10:00:11;3.50;99.90
59999;DHT22;45859;51.378;6.736;2023-01-23T10:02:42;3.60;99.90
59999;DHT22;45859;51.378;6.736;2023-01-23T10:05:12;3.60;99.90
59999;DHT22;45859;51.378;6.736;2023-01-23T10:16:04;3.70;99.90
59999;DHT22;45859;51.378;6.736;2023-01-23T10:18:47;3.70;99.90
59999;DHT22;45859;51.378;6.736;2023-01-23T10:21:43;3.70;99.90
59999;DHT22;45859;51.378;6.736;2023-01-23T10:24:48;3.70;99.90
59999;DHT22;45859;51.378;6.736;2023-01-23T10:27:25;3.70;99.90
59999;DHT22;45859;51.378;6.736;2023-01-23T10:30:16;3.80;99.90
59999;DHT22;45859;51.378;6.736;2023-01-23T10:35:35;3.90;99.90
59999;DHT22;45859;51.378;6.736;2023-01-23T10:38:26;4.00;99.90
59999;DHT22;45859;51.378;6.736;2023-01-23T10:40:53;4.00;99.90
59999;DHT22;45859;51.378;6.736;2023-01-23T10:43:38;3.90;99.90
59999;DHT22;45859;51.378;6.736;2023-01-23T10:46:20;3.90;99.90
59999;DHT22;45859;51.378;6.736;2023-01-23T10:48:48;4.00;99.90
59999;DHT22;45859;51.378;6.736;2023-01-23T10:54:09;4.00;99.90
59999;DHT22;45859;51.378;6.736;2023-01-23T10:56:54;4.00;99.90
59999;DHT22;45859;51.378;6.736;2023-01-23T11:02:16;4.00;99.90
59999;DHT22;45859;51.378;6.736;2023-01-23T11:04:45;4.20;99.90
59999;DHT22;45859;51.378;6.736;2023-01-23T11:07:17;4.20;99.90
59999;DHT22;45859;51.378;6.736;2023-01-23T11:12:35;4.20;99.90
59999;DHT22;45859;51.378;6.736;2023-01-23T11:17:47;4.30;99.90
59999;DHT22;45859;51.378;6.736;2023-01-23T11:23:12;4.30;99.90
59999;DHT22;45859;51.378;6.736;2023-01-23T11:25:43;4.30;99.90
59999;DHT22;45859;51.378;6.736;2023-01-23T11:30:58;4.40;99.90
59999;DHT22;45859;51.378;6.736;2023-01-23T11:36:05;4.30;99.90
59999;DHT22;45859;51.378;6.736;2023-01-23T11:38:44;4.30;99.90
59999;DHT22;45859;51.378;6.736;2023-01-23T11:41:11;4.30;99.90
59999;DHT22;45859;51.378;6.736;2023-01-23T11:43:38;4.30;99.90
59999;DHT22;45859;51.378;6.736;2023-01-23T11:52:13;4.40;99.90
59999;DHT22;45859;51.378;6.736;2023-01-23T12:00:03;4.30;99.90
59999;DHT22;45859;51.378;6.736;2023-01-23T12:05:56;4.20;99.90
59999;DHT22;45859;51.378;6.736;2023-01-23T12:08:23;4.30;99.90
59999;DHT22;45859;51.378;6.736;2023-01-23T12:11:14;4.30;99.90
59999;DHT22;45859;51.378;6.736;2023-01-23T12:35:46;4.40;99.90
59999;DHT22;45859;51.378;6.736;2023-01-23T12:43:51;4.40;99.90
59999;DHT22;45859;51.378;6.736;2023-01-23T12:46:25;4.40;99.90
59999;DHT22;45859;51.378;6.736;2023-01-23T12:49:03;4.40;99.90
59999;DHT22;45859;51.378;6.736;2023-01-23T12:51:36;4.40;99.90
59999;DHT22;45859;51.378;6.736;2023-01-23T12:54:16;4.50;99.90
59999;DHT22;45859;51.378;6.736;2023-01-23T12:56:45;4.50;99.90
59999;DHT22;45859;51.378;6.736;2023-01-23T12:59:22;4.50;99.90
59999;DHT22;45859;51.378;6.736;2023-01-23T13:10:04;4.40;99.90
59999;DHT22;45859;51.378;6.736;2023-01-23T13:12:35;4.30;99.90
59999;DHT22;45859;51.378;6.736;2023-01-23T13:15:32;4.40;99.90
59999;DHT22;45859;51.378;6.736;2023-01-23T13:18:02;4.40;99.90
59999;DHT22;45859;51.378;6.736;2023-01-23T13:20:31;4.40;99.90
59999;DHT22;45859;51.378;6.736;2023-01-23T13:26:10;4.40;99.90
59999;DHT22;45859;51.378;6.736;2023-01-23T13:34:00;4.50;99.90
59999;DHT22;45859;51.378;6.736;2023-01-23T13:39:01;4.50;99.90
59999;DHT22;45859;51.378;6.736;2023-01-23T13:41:31;4.40;99.90
59999;DHT22;45859;51.378;6.736;2023-01-23T13:44:18;4.40;99.90
59999;DHT22;45859;51.378;6.736;2023-01-23T13:47:08;4.40;99.90
59999;DHT22;45859;51.378;6.736;2023-01-23T13:50:10;4.40;99.90
59999;DHT22;45859;51.378;6.736;2023-01-23T13:52:49;4.40;99.90
59999;DHT22;45859;51.378;6.736;2023-01-23T13:55:40;4.40;99.90
59999;DHT22;45859;51.378;6.736;2023-01-23T13:58:27;4.40;99.90
59999;DHT22;45859;51.378;6.736;2023-01-23T14:00:58;4.30;99.90
59999;DHT22;45859;51.378;6.736;2023-01-23T14:03:49;4.30;99.90
59999;DHT22;45859;51.378;6.736;2023-01-23T14:06:39;4.30;99.90
59999;DHT22;45859;51.378;6.736;2023-01-23T14:09:28;4.30;99.90
59999;DHT22;45859;51.378;6.736;2023-01-23T14:11:58;4.30;99.90
59999;DHT22;45859;51.378;6.736;2023-01-23T14:14:24;4.40;99.90
59999;DHT22;45859;51.378;6.736;2023-01-23T14:17:10;4.30;99.90
59999;DHT22;45859;51.378;6.736;2023-01-23T14:19:59;4.40;99.90
59999;DHT22;45859;51.378;6.736;2023-01-23T14:22:29;4.40;99.90
59999;DHT22;45859;51.378;6.736;2023-01-23T14:24:57;4.30;99.90
59999;DHT22;45859;51.378;6.736;2023-01-23T14:27:33;4.40;99.90
59999;DHT22;45859;51.378;6.736;2023-01-23T14:30:18;4.40;99.90
59999;DHT22;45859;51.378;6.736;2023-01-23T14:32:44;4.50;99.90
59999;DHT22;45859;51.378;6.736;2023-01-23T14:35:33;4.50;99.90
59999;DHT22;45859;51.378;6.736;2023-01-23T14:38:05;4.50;99.90
59999;DHT22;45859;51.378;6.736;2023-01-23T14:40:32;4.40;99.90
59999;DHT22;45859;51.378;6.736;2023-01-23T14:43:04;4.40;99.90
59999;DHT22;45859;51.378;6.736;2023-01-23T14:45:32;4.40;99.90
59999;DHT22;45859;51.378;6.736;2023-01-23T14:47:58;4.40;99.90
59999;DHT22;45859;51.378;6.736;2023-01-23T14:50:27;4.30;99.90
59999;DHT22;45859;51.378;6.736;2023-01-23T14:55:28;4.30;99.90
59999;DHT22;45859;51.378;6.736;2023-01-23T14:57:57;4.30;99.90
59999;DHT22;45859;51.378;6.736;2023-01-23T15:00:24;4.20;99.90
59999;DHT22;45859;51.378;6.736;2023-01-23T15:02:50;4.20;99.90
59999;DHT22;45859;51.378;6.736;2023-01-23T15:08:02;4.20;99.90
59999;DHT22;45859;51.378;6.736;2023-01-23T15:10:31;4.10;99.90
59999;DHT22;45859;51.378;6.736;2023-01-23T15:13:02;4.10;99.90
59999;DHT22;45859;51.378;6.736;2023-01-23T15:15:31;4.10;99.90
59999;DHT22;45859;51.378;6.736;2023-01-23T15:17:58;4.10;99.90
59999;DHT22;45859;51.378;6.736;2023-01-23T15:20:32;4.10;99.90
59999;DHT22;45859;51.378;6.736;2023-01-23T15:33:53;4.00;99.90
59999;DHT22;45859;51.378;6.736;2023-01-23T15:36:29;4.00;99.90
59999;DHT22;45859;51.378;6.736;2023-01-23T15:38:56;4.00;99.90
59999;DHT22;45859;51.378;6.736;2023-01-23T15:41:43;4.00;99.90
59999;DHT22;45859;51.378;6.736;2023-01-23T15:44:18;4.00;99.90
59999;DHT22;45859;51.378;6.736;2023-01-23T15:46:44;4.00;99.90
59999;DHT22;45859;51.378;6.736;2023-01-23T15:49:10;4.00;99.90
59999;DHT22;45859;51.378;6.736;2023-01-23T15:51:36;4.00;99.90
59999;DHT22;45859;51.378;6.736;2023-01-23T15:54:03;3.90;99.90
59999;DHT22;45859;51.378;6.736;2023-01-23T15:56:31;4.00;99.90
59999;DHT22;45859;51.378;6.736;2023-01-23T15:58:57;4.00;99.90
59999;DHT22;45859;51.378;6.736;2023-01-23T16:01:25;4.00;99.90
59999;DHT22;45859;51.378;6.736;2023-01-23T16:03:51;3.90;99.90
59999;DHT22;45859;51.378;6.736;2023-01-23T16:06:21;3.90;99.90
59999;DHT22;45859;51.378;6.736;2023-01-23T16:08:51;5.70;99.90
59999;DHT22;45859;51.378;6.736;2023-01-23T16:11:18;3.90;99.90
59999;DHT22;45859;51.378;6.736;2023-01-23T16:13:44;3.90;99.90
59999;DHT22;45859;51.378;6.736;2023-01-23T16:16:14;3.90;99.90
59999;DHT22;45859;51.378;6.736;2023-01-23T16:18:40;3.90;99.90
59999;DHT22;45859;51.378;6.736;2023-01-23T16:21:11;3.90;99.90
59999;DHT22;45859;51.378;6.736;2023-01-23T16:23:37;3.90;99.90
59999;DHT22;45859;51.378;6.736;2023-01-23T16:26:03;3.90;99.90
59999;DHT22;45859;51.378;6.736;2023-01-23T16:28:32;3.90;99.90
59999;DHT22;45859;51.378;6.736;2023-01-23T16:30:58;3.80;99.90
59999;DHT22;45859;51.378;6.736;2023-01-23T16:33:24;3.70;99.90
59999;DHT22;45859;51.378;6.736;2023-01-23T16:35:50;3.80;99.90
59999;DHT22;45859;51.378;6.736;2023-01-23T16:38:22;3.80;99.90
59999;DHT22;45859;51.378;6.736;2023-01-23T16:40:49;3.80;99.90
59999;DHT22;45859;51.378;6.736;2023-01-23T16:43:17;3.80;99.90
59999;DHT22;45859;51.378;6.736;2023-01-23T16:45:44;3.80;99.90
59999;DHT22;45859;51.378;6.736;2023-01-23T16:48:09;3.80;99.90
59999;DHT22;45859;51.378;6.736;2023-01-23T16:50:37;3.80;99.90
59999;DHT22;45859;51.378;6.736;2023-01-23T16:53:28;3.80;99.90
59999;DHT22;45859;51.378;6.736;2023-01-23T16:55:56;3.80;99.90
59999;DHT22;45859;51.378;6.736;2023-01-23T16:58:25;3.80;99.90
59999;DHT22;45859;51.378;6.736;2023-01-23T17:00:57;3.80;99.90
59999;DHT22;45859;51.378;6.736;2023-01-23T17:03:30;3.70;99.90
59999;DHT22;45859;51.378;6.736;2023-01-23T17:05:56;3.70;99.90
59999;DHT22;45859;51.378;6.736;2023-01-23T17:08:23;3.70;99.90
59999;DHT22;45859;51.378;6.736;2023-01-23T17:10:53;3.70;99.90
59999;DHT22;45859;51.378;6.736;2023-01-23T17:13:21;3.70;99.90
59999;DHT22;45859;51.378;6.736;2023-01-23T17:15:51;3.70;99.90
59999;DHT22;45859;51.378;6.736;2023-01-23T17:18:53;3.70;99.90
59999;DHT22;45859;51.378;6.736;2023-01-23T17:21:17;3.70;99.90
59999;DHT22;45859;51.378;6.736;2023-01-23T17:23:43;3.70;99.90
59999;DHT22;45859;51.378;6.736;2023-01-23T17:26:16;3.70;99.90
59999;DHT22;45859;51.378;6.736;2023-01-23T17:28:43;3.70;99.90
59999;DHT22;45859;51.378;6.736;2023-01-23T17:31:19;3.70;99.90
59999;DHT22;45859;51.378;6.736;2023-01-23T17:33:45;3.70;99.90
59999;DHT22;45859;51.378;6.736;2023-01-23T17:36:11;3.70;99.90
59999;DHT22;45859;51.378;6.736;2023-01-23T17:38:37;3.70;99.90
59999;DHT22;45859;51.378;6.736;2023-01-23T17:41:04;3.70;99.90
59999;DHT22;45859;51.378;6.736;2023-01-23T17:43:31;3.70;99.90
59999;DHT22;45859;51.378;6.736;2023-01-23T17:45:56;3.70;99.90
59999;DHT22;45859;51.378;6.736;2023-01-23T17:48:28;3.60;99.90
59999;DHT22;45859;51.378;6.736;2023-01-23T17:50:55;3.70;99.90
59999;DHT22;45859;51.378;6.736;2023-01-23T17:53:21;3.60;99.90
59999;DHT22;45859;51.378;6.736;2023-01-23T17:55:49;3.60;99.90
59999;DHT22;45859;51.378;6.736;2023-01-23T17:58:16;3.60;99.90
59999;DHT22;45859;51.378;6.736;2023-01-23T18:00:43;3.60;99.90
59999;DHT22;45859;51.378;6.736;2023-01-23T18:03:21;3.60;99.90
59999;DHT22;45859;51.378;6.736;2023-01-23T18:05:47;3.60;99.90
59999;DHT22;45859;51.378;6.736;2023-01-23T18:08:18;3.60;99.90
59999;DHT22;45859;51.378;6.736;2023-01-23T18:10:46;3.60;99.90